Time,TemperatureF,DewpointF,PressureIn,WindDirection,WindDirectionDegrees,WindSpeedMPH,WindSpeedGustMPH,Humidity,HourlyPrecipIn,Conditions,Clouds,dailyrainin,SoftwareType,DateUTC
2013-03-08 04:30:00,24.6,12.0,30.33,North,-999,0.0,0.0,58,0.00,,,-99.99,FreeWX 2.04,2013-03-08 09:30:00,
2013-03-08 04:36:00,24.6,11.7,30.33,North,-999,0.0,0.0,57,0.00,,,-99.99,FreeWX 2.04,2013-03-08 09:36:00,
2013-03-08 04:41:00,24.8,11.8,30.33,North,-999,0.0,0.0,57,0.00,,,-99.99,FreeWX 2.04,2013-03-08 09:41:00,
2013-03-08 06:46:00,23.2,10.2,30.36,North,-999,0.0,0.0,57,0.00,,,-99.99,FreeWX 2.04,2013-03-08 11:46:00,
2013-03-08 06:51:00,23.0,10.4,30.36,North,-999,0.0,0.0,58,0.00,,,-99.99,FreeWX 2.04,2013-03-08 11:51:00,
2013-03-08 06:56:00,23.0,10.4,30.36,North,-999,0.0,0.0,58,0.00,,,-99.99,FreeWX 2.04,2013-03-08 11:56:00,
2013-03-08 07:01:00,23.0,10.8,30.36,North,-999,0.0,0.0,59,0.00,,,-99.99,FreeWX 2.04,2013-03-08 12:01:00,
2013-03-08 07:06:00,23.2,11.3,30.36,North,-999,0.0,0.0,60,0.00,,,-99.99,FreeWX 2.04,2013-03-08 12:06:00,
2013-03-08 07:11:00,23.7,12.6,30.36,North,-999,0.0,0.0,62,0.00,,,-99.99,FreeWX 2.04,2013-03-08 12:11:00,
2013-03-08 07:16:00,24.1,13.3,30.36,North,-999,0.0,0.0,63,0.00,,,-99.99,FreeWX 2.04,2013-03-08 12:16:00,
2013-03-08 07:21:00,24.6,14.2,30.36,North,-999,0.0,0.0,64,0.00,,,-99.99,FreeWX 2.04,2013-03-08 12:21:00,
2013-03-08 07:26:00,24.8,14.4,30.36,North,-999,0.0,0.0,64,0.00,,,-99.99,FreeWX 2.04,2013-03-08 12:26:00,
2013-03-08 07:31:00,25.2,14.7,30.36,North,-999,0.0,0.0,64,0.00,,,-99.99,FreeWX 2.04,2013-03-08 12:31:00,
2013-03-08 07:36:00,25.5,15.4,30.36,North,-999,0.0,0.0,65,0.00,,,-99.99,FreeWX 2.04,2013-03-08 12:36:00,
2013-03-08 07:41:00,25.7,15.6,30.36,North,-999,0.0,0.0,65,0.00,,,-99.99,FreeWX 2.04,2013-03-08 12:41:00,
2013-03-08 07:46:00,26.2,16.2,30.36,North,-999,0.0,0.0,65,0.00,,,-99.99,FreeWX 2.04,2013-03-08 12:46:00,
2013-03-08 07:51:00,26.4,16.3,30.36,North,-999,0.0,0.0,65,0.00,,,-99.99,FreeWX 2.04,2013-03-08 12:51:00,
2013-03-08 07:56:00,26.8,16.9,30.36,North,-999,0.0,0.0,66,0.00,,,-99.99,FreeWX 2.04,2013-03-08 12:56:00,
2013-03-08 08:01:00,27.0,16.7,30.36,North,-999,0.0,0.0,65,0.00,,,-99.99,FreeWX 2.04,2013-03-08 13:01:00,
2013-03-08 08:06:00,27.3,17.1,30.36,North,-999,0.0,0.0,65,0.00,,,-99.99,FreeWX 2.04,2013-03-08 13:06:00,
2013-03-08 08:11:00,27.9,17.2,30.36,North,-999,0.0,0.0,64,0.00,,,-99.99,FreeWX 2.04,2013-03-08 13:11:00,
2013-03-08 08:16:00,28.4,17.8,30.36,North,-999,0.0,0.0,64,0.00,,,-99.99,FreeWX 2.04,2013-03-08 13:16:00,
2013-03-08 08:21:00,29.1,18.5,30.36,North,-999,0.0,0.0,64,0.00,,,-99.99,FreeWX 2.04,2013-03-08 13:21:00,
2013-03-08 08:26:00,29.3,17.6,30.36,North,-999,0.0,0.0,61,0.00,,,-99.99,FreeWX 2.04,2013-03-08 13:26:00,
2013-03-08 08:31:00,29.5,16.9,30.36,North,-999,0.0,0.0,59,0.00,,,-99.99,FreeWX 2.04,2013-03-08 13:31:00,
2013-03-08 08:36:00,29.3,16.0,30.39,North,-999,0.0,0.0,57,0.00,,,-99.99,FreeWX 2.04,2013-03-08 13:36:00,
2013-03-08 08:41:00,29.5,15.3,30.39,North,-999,0.0,0.0,55,0.00,,,-99.99,FreeWX 2.04,2013-03-08 13:41:00,
2013-03-08 08:46:00,29.8,15.6,30.39,North,-999,0.0,2.7,55,0.00,,,-99.99,FreeWX 2.04,2013-03-08 13:46:00,
2013-03-08 08:51:00,30.4,15.8,30.39,North,-999,0.0,0.0,54,0.00,,,-99.99,FreeWX 2.04,2013-03-08 13:51:00,
2013-03-08 08:56:00,30.7,15.6,30.39,North,-999,0.0,3.6,53,0.00,,,-99.99,FreeWX 2.04,2013-03-08 13:56:00,
2013-03-08 09:01:00,31.1,15.6,30.39,North,-999,0.0,3.6,52,0.00,,,-99.99,FreeWX 2.04,2013-03-08 14:01:00,
2013-03-08 09:06:00,31.6,15.6,30.36,North,-999,0.0,0.0,51,0.00,,,-99.99,FreeWX 2.04,2013-03-08 14:06:00,
2013-03-08 09:11:00,32.4,16.3,30.36,North,-999,0.0,0.0,51,0.00,,,-99.99,FreeWX 2.04,2013-03-08 14:11:00,
2013-03-08 09:16:00,32.7,16.7,30.36,North,-999,0.0,4.0,51,0.00,,,-99.99,FreeWX 2.04,2013-03-08 14:16:00,
2013-03-08 09:21:00,33.4,17.2,30.36,North,-999,0.0,0.0,51,0.00,,,-99.99,FreeWX 2.04,2013-03-08 14:21:00,
2013-03-08 09:26:00,34.2,18.0,30.36,North,-999,0.0,0.0,51,0.00,,,-99.99,FreeWX 2.04,2013-03-08 14:26:00,
2013-03-08 09:36:00,34.5,16.3,30.36,North,-999,0.0,2.7,47,0.00,,,-99.99,FreeWX 2.04,2013-03-08 14:36:00,
2013-03-08 09:41:00,35.2,17.1,30.36,North,-999,0.0,2.7,47,0.00,,,-99.99,FreeWX 2.04,2013-03-08 14:41:00,
2013-03-08 09:46:00,35.8,17.6,30.36,North,-999,0.0,2.7,47,0.00,,,-99.99,FreeWX 2.04,2013-03-08 14:46:00,
2013-03-08 09:51:00,36.9,19.0,30.39,North,-999,0.0,0.0,48,0.00,,,-99.99,FreeWX 2.04,2013-03-08 14:51:00,
2013-03-08 10:01:00,36.9,17.1,30.39,North,-999,0.0,4.9,44,0.00,,,-99.99,FreeWX 2.04,2013-03-08 15:01:00,
2013-03-08 10:06:00,37.8,17.8,30.39,North,-999,0.0,3.6,44,0.00,,,-99.99,FreeWX 2.04,2013-03-08 15:06:00,
2013-03-08 10:11:00,38.3,17.8,30.39,North,-999,0.0,4.0,43,0.00,,,-99.99,FreeWX 2.04,2013-03-08 15:11:00,
2013-03-08 10:16:00,38.8,17.2,30.39,North,-999,0.0,4.0,41,0.00,,,-99.99,FreeWX 2.04,2013-03-08 15:16:00,
2013-03-08 10:21:00,38.7,16.5,30.39,North,-999,0.0,2.7,40,0.00,,,-99.99,FreeWX 2.04,2013-03-08 15:21:00,
2013-03-08 10:26:00,38.3,15.6,30.39,North,-999,0.0,2.7,39,0.00,,,-99.99,FreeWX 2.04,2013-03-08 15:26:00,
2013-03-08 10:31:00,39.0,16.2,30.39,North,-999,0.0,3.6,39,0.00,,,-99.99,FreeWX 2.04,2013-03-08 15:31:00,
2013-03-08 10:36:00,39.2,16.3,30.39,North,-999,0.0,3.6,39,0.00,,,-99.99,FreeWX 2.04,2013-03-08 15:36:00,
2013-03-08 10:41:00,38.8,16.0,30.39,North,-999,0.0,3.1,39,0.00,,,-99.99,FreeWX 2.04,2013-03-08 15:41:00,
2013-03-08 10:47:00,39.2,16.3,30.39,North,-999,0.0,0.0,39,0.00,,,-99.99,FreeWX 2.04,2013-03-08 15:47:00,
2013-03-08 10:52:00,39.2,14.5,30.39,North,-999,0.0,3.6,36,0.00,,,-99.99,FreeWX 2.04,2013-03-08 15:52:00,
2013-03-08 10:57:00,38.7,14.0,30.39,North,-999,0.0,3.1,36,0.00,,,-99.99,FreeWX 2.04,2013-03-08 15:57:00,
2013-03-08 11:02:00,39.0,15.6,30.39,North,-999,0.0,2.7,38,0.00,,,-99.99,FreeWX 2.04,2013-03-08 16:02:00,
2013-03-08 11:07:00,40.3,17.2,30.36,North,-999,0.0,0.0,39,0.00,,,-99.99,FreeWX 2.04,2013-03-08 16:07:00,
2013-03-08 11:12:00,40.6,15.1,30.36,North,-999,0.0,4.0,35,0.00,,,-99.99,FreeWX 2.04,2013-03-08 16:12:00,
2013-03-08 11:17:00,40.3,14.2,30.36,North,-999,0.0,3.6,34,0.00,,,-99.99,FreeWX 2.04,2013-03-08 16:17:00,
2013-03-08 11:22:00,40.8,15.3,30.39,North,-999,0.0,0.0,35,0.00,,,-99.99,FreeWX 2.04,2013-03-08 16:22:00,
2013-03-08 11:27:00,42.4,18.0,30.39,North,-999,0.0,0.0,37,0.00,,,-99.99,FreeWX 2.04,2013-03-08 16:27:00,
2013-03-08 11:32:00,43.2,16.0,30.39,North,-999,0.0,3.6,33,0.00,,,-99.99,FreeWX 2.04,2013-03-08 16:32:00,
2013-03-08 11:37:00,42.8,15.8,30.39,North,-999,0.0,0.0,33,0.00,,,-99.99,FreeWX 2.04,2013-03-08 16:37:00,
2013-03-08 11:42:00,42.4,14.7,30.39,North,-999,0.0,3.6,32,0.00,,,-99.99,FreeWX 2.04,2013-03-08 16:42:00,
2013-03-08 11:47:00,43.0,15.8,30.39,North,-999,0.0,4.9,33,0.00,,,-99.99,FreeWX 2.04,2013-03-08 16:47:00,
2013-03-08 11:52:00,42.8,15.8,30.39,North,-999,0.0,2.7,33,0.00,,,-99.99,FreeWX 2.04,2013-03-08 16:52:00,
2013-03-08 11:57:00,43.3,16.2,30.39,North,-999,0.0,3.1,33,0.00,,,-99.99,FreeWX 2.04,2013-03-08 16:57:00,
2013-03-08 12:02:00,44.8,18.9,30.39,North,-999,0.0,0.0,35,0.00,,,-99.99,FreeWX 2.04,2013-03-08 17:02:00,
2013-03-08 12:07:00,45.5,18.1,30.39,North,-999,0.0,2.7,33,0.00,,,-99.99,FreeWX 2.04,2013-03-08 17:07:00,
2013-03-08 12:12:00,45.1,17.1,30.39,North,-999,0.0,2.7,32,0.00,,,-99.99,FreeWX 2.04,2013-03-08 17:12:00,
2013-03-08 12:17:00,44.2,15.6,30.39,North,-999,0.0,4.5,31,0.00,,,-99.99,FreeWX 2.04,2013-03-08 17:17:00,
2013-03-08 12:22:00,44.8,16.7,30.39,North,-999,0.0,0.0,32,0.00,,,-99.99,FreeWX 2.04,2013-03-08 17:22:00,
2013-03-08 12:27:00,45.1,17.1,30.39,North,-999,0.0,2.7,32,0.00,,,-99.99,FreeWX 2.04,2013-03-08 17:27:00,
2013-03-08 12:32:00,44.6,16.5,30.39,North,-999,0.0,4.0,32,0.00,,,-99.99,FreeWX 2.04,2013-03-08 17:32:00,
2013-03-08 12:37:00,44.4,16.3,30.36,North,-999,0.0,3.6,32,0.00,,,-99.99,FreeWX 2.04,2013-03-08 17:37:00,
2013-03-08 12:42:00,45.5,18.9,30.36,North,-999,0.0,0.0,34,0.00,,,-99.99,FreeWX 2.04,2013-03-08 17:42:00,
2013-03-08 12:47:00,46.8,19.9,30.36,North,-999,0.0,3.1,34,0.00,,,-99.99,FreeWX 2.04,2013-03-08 17:47:00,
2013-03-08 12:52:00,47.5,19.8,30.36,North,-999,0.0,2.7,33,0.00,,,-99.99,FreeWX 2.04,2013-03-08 17:52:00,
2013-03-08 12:57:00,47.3,19.0,30.36,North,-999,0.0,3.1,32,0.00,,,-99.99,FreeWX 2.04,2013-03-08 17:57:00,
2013-03-08 13:02:00,46.2,16.5,30.36,North,-999,0.0,3.1,30,0.00,,,-99.99,FreeWX 2.04,2013-03-08 18:02:00,
2013-03-08 13:07:00,46.6,17.6,30.36,North,-999,0.0,4.0,31,0.00,,,-99.99,FreeWX 2.04,2013-03-08 18:07:00,
2013-03-08 13:12:00,45.5,15.8,30.36,North,-999,0.0,4.9,30,0.00,,,-99.99,FreeWX 2.04,2013-03-08 18:12:00,
2013-03-08 13:17:00,46.0,17.1,30.36,North,-999,0.0,4.0,31,0.00,,,-99.99,FreeWX 2.04,2013-03-08 18:17:00,
2013-03-08 13:22:00,45.9,16.9,30.36,North,-999,0.0,3.1,31,0.00,,,-99.99,FreeWX 2.04,2013-03-08 18:22:00,
2013-03-08 13:27:00,45.3,16.5,30.36,North,-999,0.0,4.0,31,0.00,,,-99.99,FreeWX 2.04,2013-03-08 18:27:00,
2013-03-08 13:32:00,44.2,14.7,30.36,North,-999,0.0,4.0,30,0.00,,,-99.99,FreeWX 2.04,2013-03-08 18:32:00,
2013-03-08 13:37:00,44.1,15.4,30.36,North,-999,0.0,3.1,31,0.00,,,-99.99,FreeWX 2.04,2013-03-08 18:37:00,
2013-03-08 13:42:00,42.6,14.2,30.36,North,-999,0.0,0.0,31,0.00,,,-99.99,FreeWX 2.04,2013-03-08 18:42:00,
2013-03-08 13:47:00,42.3,14.5,30.36,North,-999,0.0,3.6,32,0.00,,,-99.99,FreeWX 2.04,2013-03-08 18:47:00,
2013-03-08 13:52:00,43.5,17.1,30.36,North,-999,0.0,0.0,34,0.00,,,-99.99,FreeWX 2.04,2013-03-08 18:52:00,
2013-03-08 13:57:00,44.4,17.8,30.36,North,-999,0.0,0.0,34,0.00,,,-99.99,FreeWX 2.04,2013-03-08 18:57:00,
2013-03-08 14:02:00,44.2,17.1,30.36,North,-999,0.0,4.0,33,0.00,,,-99.99,FreeWX 2.04,2013-03-08 19:02:00,
2013-03-08 14:07:00,44.2,17.6,30.33,North,-999,0.0,2.7,34,0.00,,,-99.99,FreeWX 2.04,2013-03-08 19:07:00,
2013-03-08 14:12:00,44.2,17.1,30.33,North,-999,0.0,3.1,33,0.00,,,-99.99,FreeWX 2.04,2013-03-08 19:12:00,
2013-03-08 14:17:00,43.5,15.6,30.33,North,-999,0.0,4.5,32,0.00,,,-99.99,FreeWX 2.04,2013-03-08 19:17:00,
2013-03-08 14:22:00,43.7,17.2,30.33,North,-999,0.0,4.0,34,0.00,,,-99.99,FreeWX 2.04,2013-03-08 19:22:00,
2013-03-08 14:27:00,44.2,17.6,30.33,North,-999,0.0,3.1,34,0.00,,,-99.99,FreeWX 2.04,2013-03-08 19:27:00,
2013-03-08 14:32:00,44.2,17.6,30.33,North,-999,0.0,4.9,34,0.00,,,-99.99,FreeWX 2.04,2013-03-08 19:32:00,
2013-03-08 14:37:00,44.2,17.6,30.33,North,-999,0.0,3.6,34,0.00,,,-99.99,FreeWX 2.04,2013-03-08 19:37:00,
2013-03-08 14:42:00,44.2,17.6,30.33,North,-999,0.0,0.0,34,0.00,,,-99.99,FreeWX 2.04,2013-03-08 19:42:00,
2013-03-08 14:47:00,44.1,16.9,30.33,North,-999,0.0,4.5,33,0.00,,,-99.99,FreeWX 2.04,2013-03-08 19:47:00,
2013-03-08 14:52:00,43.0,15.8,30.33,North,-999,0.0,0.0,33,0.00,,,-99.99,FreeWX 2.04,2013-03-08 19:52:00,
2013-03-08 14:57:00,42.4,16.2,30.33,North,-999,0.0,0.0,34,0.00,,,-99.99,FreeWX 2.04,2013-03-08 19:57:00,
2013-03-08 15:02:00,42.4,16.7,30.33,North,-999,0.0,3.1,35,0.00,,,-99.99,FreeWX 2.04,2013-03-08 20:02:00,
2013-03-08 15:07:00,42.6,16.9,30.33,North,-999,0.0,0.0,35,0.00,,,-99.99,FreeWX 2.04,2013-03-08 20:07:00,
2013-03-08 15:12:00,42.4,16.7,30.33,North,-999,0.0,0.0,35,0.00,,,-99.99,FreeWX 2.04,2013-03-08 20:12:00,
2013-03-08 15:17:00,42.3,16.5,30.33,North,-999,0.0,2.7,35,0.00,,,-99.99,FreeWX 2.04,2013-03-08 20:17:00,
2013-03-08 15:22:00,41.5,16.0,30.33,North,-999,0.0,3.6,35,0.00,,,-99.99,FreeWX 2.04,2013-03-08 20:22:00,
2013-03-08 15:27:00,41.2,15.6,30.33,North,-999,0.0,3.1,35,0.00,,,-99.99,FreeWX 2.04,2013-03-08 20:27:00,
2013-03-08 15:32:00,41.0,16.2,30.33,North,-999,0.0,4.5,36,0.00,,,-99.99,FreeWX 2.04,2013-03-08 20:32:00,
2013-03-08 15:37:00,41.0,16.2,30.33,North,-999,0.0,4.0,36,0.00,,,-99.99,FreeWX 2.04,2013-03-08 20:37:00,
2013-03-08 15:42:00,40.3,15.4,30.33,North,-999,0.0,3.1,36,0.00,,,-99.99,FreeWX 2.04,2013-03-08 20:42:00,
2013-03-08 15:47:00,39.7,15.6,30.33,North,-999,0.0,2.7,37,0.00,,,-99.99,FreeWX 2.04,2013-03-08 20:47:00,
2013-03-08 15:52:00,39.4,15.3,30.33,North,-999,0.0,3.6,37,0.00,,,-99.99,FreeWX 2.04,2013-03-08 20:52:00,
2013-03-08 15:57:00,39.4,16.0,30.33,North,-999,0.0,3.6,38,0.00,,,-99.99,FreeWX 2.04,2013-03-08 20:57:00,
2013-03-08 16:02:00,39.7,16.9,30.33,North,-999,0.0,3.1,39,0.00,,,-99.99,FreeWX 2.04,2013-03-08 21:02:00,
2013-03-08 16:07:00,39.7,16.9,30.33,North,-999,0.0,0.0,39,0.00,,,-99.99,FreeWX 2.04,2013-03-08 21:07:00,
2013-03-08 16:12:00,39.6,16.7,30.33,North,-999,0.0,3.6,39,0.00,,,-99.99,FreeWX 2.04,2013-03-08 21:12:00,
2013-03-08 16:17:00,39.4,16.5,30.33,North,-999,0.0,0.0,39,0.00,,,-99.99,FreeWX 2.04,2013-03-08 21:17:00,
2013-03-08 16:47:00,39.9,17.1,30.33,North,-999,0.0,0.0,39,0.00,,,-99.99,FreeWX 2.04,2013-03-08 21:47:00,
2013-03-08 16:52:00,39.4,16.5,30.33,North,-999,0.0,0.0,39,0.00,,,-99.99,FreeWX 2.04,2013-03-08 21:52:00,
2013-03-08 16:57:00,38.8,16.0,30.33,North,-999,0.0,3.6,39,0.00,,,-99.99,FreeWX 2.04,2013-03-08 21:57:00,
2013-03-08 17:02:00,37.9,15.3,30.33,North,-999,0.0,0.0,39,0.00,,,-99.99,FreeWX 2.04,2013-03-08 22:02:00,
2013-03-08 17:07:00,37.2,14.5,30.33,North,-999,0.0,0.0,39,0.00,,,-99.99,FreeWX 2.04,2013-03-08 22:07:00,
2013-03-08 17:12:00,36.5,14.0,30.33,North,-999,0.0,0.0,39,0.00,,,-99.99,FreeWX 2.04,2013-03-08 22:12:00,
2013-03-08 17:17:00,36.1,14.2,30.33,North,-999,0.0,0.0,40,0.00,,,-99.99,FreeWX 2.04,2013-03-08 22:17:00,
2013-03-08 17:22:00,35.8,13.8,30.33,North,-999,0.0,0.0,40,0.00,,,-99.99,FreeWX 2.04,2013-03-08 22:22:00,
2013-03-08 17:27:00,35.8,13.8,30.33,North,-999,0.0,0.0,40,0.00,,,-99.99,FreeWX 2.04,2013-03-08 22:27:00,
2013-03-08 17:32:00,35.6,13.6,30.33,North,-999,0.0,4.0,40,0.00,,,-99.99,FreeWX 2.04,2013-03-08 22:32:00,
2013-03-08 17:37:00,35.1,13.3,30.33,North,-999,0.0,0.0,40,0.00,,,-99.99,FreeWX 2.04,2013-03-08 22:37:00,
2013-03-08 17:42:00,34.5,13.3,30.33,North,-999,0.0,0.0,41,0.00,,,-99.99,FreeWX 2.04,2013-03-08 22:42:00,
2013-03-08 17:47:00,34.0,12.7,30.33,North,-999,0.0,0.0,41,0.00,,,-99.99,FreeWX 2.04,2013-03-08 22:47:00,
2013-03-08 17:52:00,33.8,12.6,30.33,North,-999,0.0,0.0,41,0.00,,,-99.99,FreeWX 2.04,2013-03-08 22:52:00,
2013-03-08 17:57:00,33.4,12.4,30.33,North,-999,0.0,3.1,41,0.00,,,-99.99,FreeWX 2.04,2013-03-08 22:57:00,
2013-03-08 18:02:00,33.1,12.0,30.33,North,-999,0.0,0.0,41,0.00,,,-99.99,FreeWX 2.04,2013-03-08 23:02:00,
2013-03-08 18:07:00,32.7,12.2,30.33,North,-999,0.0,0.0,42,0.00,,,-99.99,FreeWX 2.04,2013-03-08 23:07:00,
2013-03-08 18:12:00,32.5,12.0,30.33,North,-999,0.0,0.0,42,0.00,,,-99.99,FreeWX 2.04,2013-03-08 23:12:00,
2013-03-08 18:17:00,32.2,11.7,30.33,North,-999,0.0,0.0,42,0.00,,,-99.99,FreeWX 2.04,2013-03-08 23:17:00,
2013-03-08 18:22:00,32.0,11.5,30.33,North,-999,0.0,0.0,42,0.00,,,-99.99,FreeWX 2.04,2013-03-08 23:22:00,
2013-03-08 18:27:00,31.6,11.1,30.33,North,-999,0.0,0.0,42,0.00,,,-99.99,FreeWX 2.04,2013-03-08 23:27:00,
2013-03-08 18:32:00,31.3,10.9,30.33,North,-999,0.0,0.0,42,0.00,,,-99.99,FreeWX 2.04,2013-03-08 23:32:00,
2013-03-08 18:37:00,31.1,10.8,30.33,North,-999,0.0,0.0,42,0.00,,,-99.99,FreeWX 2.04,2013-03-08 23:37:00,
2013-03-08 18:42:00,30.7,10.9,30.33,North,-999,0.0,0.0,43,0.00,,,-99.99,FreeWX 2.04,2013-03-08 23:42:00,
2013-03-08 18:47:00,30.4,10.6,30.33,North,-999,0.0,0.0,43,0.00,,,-99.99,FreeWX 2.04,2013-03-08 23:47:00,
2013-03-08 18:52:00,30.0,10.2,30.33,North,-999,0.0,0.0,43,0.00,,,-99.99,FreeWX 2.04,2013-03-08 23:52:00,
2013-03-08 18:57:00,29.7,9.9,30.33,North,-999,0.0,0.0,43,0.00,,,-99.99,FreeWX 2.04,2013-03-08 23:57:00,
2013-03-08 19:02:00,29.7,10.4,30.33,North,-999,0.0,0.0,44,0.00,,,-99.99,FreeWX 2.04,2013-03-09 00:02:00,
2013-03-08 19:07:00,29.7,10.4,30.33,North,-999,0.0,0.0,44,0.00,,,-99.99,FreeWX 2.04,2013-03-09 00:07:00,
2013-03-08 19:12:00,29.3,10.0,30.33,North,-999,0.0,0.0,44,0.00,,,-99.99,FreeWX 2.04,2013-03-09 00:12:00,
2013-03-08 19:17:00,29.3,10.6,30.33,North,-999,0.0,0.0,45,0.00,,,-99.99,FreeWX 2.04,2013-03-09 00:17:00,
2013-03-08 19:22:00,29.1,10.4,30.30,North,-999,0.0,0.0,45,0.00,,,-99.99,FreeWX 2.04,2013-03-09 00:22:00,
2013-03-08 19:27:00,28.9,10.2,30.30,North,-999,0.0,0.0,45,0.00,,,-99.99,FreeWX 2.04,2013-03-09 00:27:00,
2013-03-08 19:32:00,28.8,10.6,30.30,North,-999,0.0,0.0,46,0.00,,,-99.99,FreeWX 2.04,2013-03-09 00:32:00,
2013-03-08 19:37:00,28.8,10.6,30.30,North,-999,0.0,0.0,46,0.00,,,-99.99,FreeWX 2.04,2013-03-09 00:37:00,
2013-03-08 19:42:00,28.6,10.4,30.30,North,-999,0.0,0.0,46,0.00,,,-99.99,FreeWX 2.04,2013-03-09 00:42:00,
2013-03-08 19:47:00,28.2,10.0,30.30,North,-999,0.0,0.0,46,0.00,,,-99.99,FreeWX 2.04,2013-03-09 00:47:00,
2013-03-08 19:52:00,28.0,10.0,30.30,North,-999,0.0,0.0,46,0.00,,,-99.99,FreeWX 2.04,2013-03-09 00:52:00,
2013-03-08 19:57:00,28.0,10.0,30.30,North,-999,0.0,0.0,46,0.00,,,-99.99,FreeWX 2.04,2013-03-09 00:57:00,
2013-03-08 20:02:00,27.9,10.2,30.30,North,-999,0.0,0.0,47,0.00,,,-99.99,FreeWX 2.04,2013-03-09 01:02:00,
2013-03-08 20:07:00,27.7,10.0,30.30,North,-999,0.0,0.0,47,0.00,,,-99.99,FreeWX 2.04,2013-03-09 01:07:00,
2013-03-08 20:12:00,27.7,10.6,30.30,North,-999,0.0,0.0,48,0.00,,,-99.99,FreeWX 2.04,2013-03-09 01:12:00,
2013-03-08 20:17:00,27.7,10.6,30.30,North,-999,0.0,0.0,48,0.00,,,-99.99,FreeWX 2.04,2013-03-09 01:17:00,
2013-03-08 20:22:00,27.7,11.1,30.30,North,-999,0.0,0.0,49,0.00,,,-99.99,FreeWX 2.04,2013-03-09 01:22:00,
2013-03-08 20:27:00,27.5,11.3,30.30,North,-999,0.0,0.0,50,0.00,,,-99.99,FreeWX 2.04,2013-03-09 01:27:00,
2013-03-08 20:32:00,27.3,11.7,30.30,North,-999,0.0,0.0,51,0.00,,,-99.99,FreeWX 2.04,2013-03-09 01:32:00,
2013-03-08 20:37:00,27.3,12.0,30.30,North,-999,0.0,0.0,52,0.00,,,-99.99,FreeWX 2.04,2013-03-09 01:37:00,
2013-03-08 20:42:00,27.1,11.8,30.30,North,-999,0.0,0.0,52,0.00,,,-99.99,FreeWX 2.04,2013-03-09 01:42:00,
2013-03-08 20:47:00,27.0,11.7,30.30,North,-999,0.0,0.0,52,0.00,,,-99.99,FreeWX 2.04,2013-03-09 01:47:00,
2013-03-08 20:52:00,26.8,11.5,30.30,North,-999,0.0,0.0,52,0.00,,,-99.99,FreeWX 2.04,2013-03-09 01:52:00,
2013-03-08 20:57:00,26.8,12.0,30.30,North,-999,0.0,0.0,53,0.00,,,-99.99,FreeWX 2.04,2013-03-09 01:57:00,
2013-03-08 21:02:00,26.8,12.0,30.30,North,-999,0.0,0.0,53,0.00,,,-99.99,FreeWX 2.04,2013-03-09 02:02:00,
2013-03-08 21:07:00,26.8,12.0,30.30,North,-999,0.0,0.0,53,0.00,,,-99.99,FreeWX 2.04,2013-03-09 02:07:00,
2013-03-08 21:12:00,26.8,12.0,30.30,North,-999,0.0,0.0,53,0.00,,,-99.99,FreeWX 2.04,2013-03-09 02:12:00,